sensor_id;sensor_type;location;lat;lon;timestamp;pressure;altitude;pressure_sealevel;temperature;humidity
55550;BME280;41397;49.972;18.944;2023-05-22T00:00:59;102039.44;;;18.40;58.23
55550;BME280;41397;49.972;18.944;2023-05-22T00:04:04;102042.93;;;18.32;58.52
55550;BME280;41397;49.972;18.944;2023-05-22T00:07:06;102033.75;;;18.22;58.62
55550;BME280;41397;49.972;18.944;2023-05-22T00:10:08;102039.42;;;18.11;59.00
55550;BME280;41397;49.972;18.944;2023-05-22T00:13:10;102030.82;;;18.14;58.95
55550;BME280;41397;49.972;18.944;2023-05-22T00:16:11;102037.27;;;18.14;58.75
55550;BME280;41397;49.972;18.944;2023-05-22T00:19:13;102031.99;;;18.11;58.75
55550;BME280;41397;49.972;18.944;2023-05-22T00:22:16;102034.89;;;18.00;58.92
55550;BME280;41397;49.972;18.944;2023-05-22T00:25:18;102026.59;;;18.00;58.88
55550;BME280;41397;49.972;18.944;2023-05-22T00:28:20;102033.90;;;18.01;58.86
55550;BME280;41397;49.972;18.944;2023-05-22T00:31:22;102031.09;;;17.91;59.14
55550;BME280;41397;49.972;18.944;2023-05-22T00:34:23;102023.67;;;17.82;59.04
55550;BME280;41397;49.972;18.944;2023-05-22T00:37:24;102016.63;;;17.78;59.17
55550;BME280;41397;49.972;18.944;2023-05-22T00:40:26;102012.41;;;17.74;59.26
55550;BME280;41397;49.972;18.944;2023-05-22T00:43:27;102024.34;;;17.74;59.20
55550;BME280;41397;49.972;18.944;2023-05-22T00:46:29;102023.80;;;17.81;59.01
55550;BME280;41397;49.972;18.944;2023-05-22T00:49:31;102013.27;;;17.74;59.03
55550;BME280;41397;49.972;18.944;2023-05-22T00:52:40;102016.63;;;17.78;59.04
55550;BME280;41397;49.972;18.944;2023-05-22T00:55:43;102009.20;;;17.69;59.08
55550;BME280;41397;49.972;18.944;2023-05-22T00:58:47;102012.23;;;17.66;59.10
55550;BME280;41397;49.972;18.944;2023-05-22T01:01:49;102010.30;;;17.57;59.13
55550;BME280;41397;49.972;18.944;2023-05-22T01:04:51;102010.58;;;17.44;59.61
55550;BME280;41397;49.972;18.944;2023-05-22T01:07:57;102016.70;;;17.47;59.45
55550;BME280;41397;49.972;18.944;2023-05-22T01:11:04;102010.87;;;17.41;59.84
55550;BME280;41397;49.972;18.944;2023-05-22T01:20:48;102007.02;;;17.22;60.32
55550;BME280;41397;49.972;18.944;2023-05-22T01:33:44;102011.20;;;17.17;60.31
55550;BME280;41397;49.972;18.944;2023-05-22T01:36:47;102007.11;;;17.11;60.39
55550;BME280;41397;49.972;18.944;2023-05-22T01:39:52;102019.44;;;17.07;60.61
55550;BME280;41397;49.972;18.944;2023-05-22T01:42:54;102014.38;;;17.12;60.49
55550;BME280;41397;49.972;18.944;2023-05-22T01:45:55;102019.88;;;17.02;60.63
55550;BME280;41397;49.972;18.944;2023-05-22T01:48:57;102013.54;;;16.91;61.01
55550;BME280;41397;49.972;18.944;2023-05-22T01:55:21;102012.64;;;16.69;61.77
55550;BME280;41397;49.972;18.944;2023-05-22T02:01:42;101997.04;;;16.79;61.38
55550;BME280;41397;49.972;18.944;2023-05-22T02:04:50;101997.04;;;16.79;61.21
55550;BME280;41397;49.972;18.944;2023-05-22T02:07:55;101995.80;;;16.72;61.28
55550;BME280;41397;49.972;18.944;2023-05-22T02:10:58;101994.52;;;16.76;61.32
55550;BME280;41397;49.972;18.944;2023-05-22T02:14:00;101996.54;;;16.74;61.16
55550;BME280;41397;49.972;18.944;2023-05-22T02:17:04;101996.08;;;16.69;61.48
55550;BME280;41397;49.972;18.944;2023-05-22T02:20:12;101997.30;;;16.55;61.71
55550;BME280;41397;49.972;18.944;2023-05-22T02:23:16;102008.30;;;16.46;62.11
55550;BME280;41397;49.972;18.944;2023-05-22T02:26:21;102003.36;;;16.49;61.86
55550;BME280;41397;49.972;18.944;2023-05-22T02:29:23;101997.57;;;16.52;61.76
55550;BME280;41397;49.972;18.944;2023-05-22T02:32:24;101997.93;;;16.59;61.33
55550;BME280;41397;49.972;18.944;2023-05-22T02:35:26;101989.76;;;16.57;61.46
55550;BME280;41397;49.972;18.944;2023-05-22T02:38:29;102000.93;;;16.56;61.45
55550;BME280;41397;49.972;18.944;2023-05-22T02:41:30;102001.67;;;16.58;61.43
55550;BME280;41397;49.972;18.944;2023-05-22T02:44:32;101999.06;;;16.56;61.38
55550;BME280;41397;49.972;18.944;2023-05-22T02:47:33;101996.89;;;16.60;61.28
55550;BME280;41397;49.972;18.944;2023-05-22T02:50:37;101993.27;;;16.59;61.24
55550;BME280;41397;49.972;18.944;2023-05-22T02:53:39;101996.57;;;16.53;61.19
55550;BME280;41397;49.972;18.944;2023-05-22T02:56:42;101995.20;;;16.48;61.47
55550;BME280;41397;49.972;18.944;2023-05-22T02:59:43;101997.24;;;16.46;61.52
55550;BME280;41397;49.972;18.944;2023-05-22T03:02:45;101997.24;;;16.46;61.45
55550;BME280;41397;49.972;18.944;2023-05-22T03:05:47;101988.02;;;16.56;61.25
55550;BME280;41397;49.972;18.944;2023-05-22T03:08:53;101994.80;;;16.73;60.97
55550;BME280;41397;49.972;18.944;2023-05-22T03:11:54;101994.20;;;16.91;60.47
55550;BME280;41397;49.972;18.944;2023-05-22T03:14:55;101987.60;;;17.13;60.04
55550;BME280;41397;49.972;18.944;2023-05-22T03:17:57;101991.47;;;17.31;59.23
55550;BME280;41397;49.972;18.944;2023-05-22T03:20:58;101996.48;;;17.57;58.29
55550;BME280;41397;49.972;18.944;2023-05-22T03:24:00;102001.98;;;17.97;57.72
55550;BME280;41397;49.972;18.944;2023-05-22T03:27:01;101989.30;;;18.14;56.60
55550;BME280;41397;49.972;18.944;2023-05-22T03:30:03;101995.86;;;18.42;56.14
55550;BME280;41397;49.972;18.944;2023-05-22T03:33:04;101996.69;;;18.72;55.22
55550;BME280;41397;49.972;18.944;2023-05-22T03:36:06;101987.01;;;18.95;53.93
55550;BME280;41397;49.972;18.944;2023-05-22T03:39:09;101979.02;;;19.20;53.32
55550;BME280;41397;49.972;18.944;2023-05-22T03:42:10;101989.44;;;19.63;52.32
55550;BME280;41397;49.972;18.944;2023-05-22T03:45:13;101989.61;;;19.89;51.75
55550;BME280;41397;49.972;18.944;2023-05-22T03:48:14;101990.47;;;20.26;50.66
55550;BME280;41397;49.972;18.944;2023-05-22T03:51:16;101989.59;;;20.61;49.74
55550;BME280;41397;49.972;18.944;2023-05-22T03:54:18;101986.59;;;20.80;48.62
55550;BME280;41397;49.972;18.944;2023-05-22T03:57:19;101989.27;;;20.90;47.90
55550;BME280;41397;49.972;18.944;2023-05-22T04:00:21;101983.92;;;21.31;47.54
55550;BME280;41397;49.972;18.944;2023-05-22T04:03:24;101980.77;;;21.68;46.64
55550;BME280;41397;49.972;18.944;2023-05-22T04:06:26;101989.91;;;22.03;45.28
55550;BME280;41397;49.972;18.944;2023-05-22T04:09:31;101993.91;;;22.09;44.98
55550;BME280;41397;49.972;18.944;2023-05-22T04:12:32;101989.22;;;22.17;44.55
55550;BME280;41397;49.972;18.944;2023-05-22T04:15:33;101990.83;;;22.45;44.18
55550;BME280;41397;49.972;18.944;2023-05-22T04:18:36;101981.43;;;22.62;43.56
55550;BME280;41397;49.972;18.944;2023-05-22T04:21:37;101994.78;;;22.91;43.07
55550;BME280;41397;49.972;18.944;2023-05-22T04:24:39;101987.88;;;23.35;42.10
55550;BME280;41397;49.972;18.944;2023-05-22T04:27:41;101989.33;;;23.62;41.43
55550;BME280;41397;49.972;18.944;2023-05-22T04:30:43;101988.69;;;23.91;40.51
55550;BME280;41397;49.972;18.944;2023-05-22T04:33:45;101985.95;;;23.83;40.21
55550;BME280;41397;49.972;18.944;2023-05-22T04:36:49;101994.17;;;24.07;40.57
55550;BME280;41397;49.972;18.944;2023-05-22T04:39:51;101980.36;;;24.06;39.62
55550;BME280;41397;49.972;18.944;2023-05-22T04:42:58;101985.84;;;23.99;39.31
55550;BME280;41397;49.972;18.944;2023-05-22T04:46:01;101982.12;;;24.07;39.74
55550;BME280;41397;49.972;18.944;2023-05-22T04:49:02;101979.93;;;24.40;39.20
55550;BME280;41397;49.972;18.944;2023-05-22T04:52:04;101974.52;;;24.62;39.08
55550;BME280;41397;49.972;18.944;2023-05-22T04:55:07;101976.70;;;24.89;38.07
55550;BME280;41397;49.972;18.944;2023-05-22T04:58:11;101976.30;;;25.07;38.22
55550;BME280;41397;49.972;18.944;2023-05-22T05:01:13;101978.86;;;25.17;37.77
55550;BME280;41397;49.972;18.944;2023-05-22T05:04:16;101977.66;;;25.11;37.58
55550;BME280;41397;49.972;18.944;2023-05-22T05:07:17;101980.65;;;25.10;37.43
55550;BME280;41397;49.972;18.944;2023-05-22T05:10:18;101980.70;;;25.24;37.59
55550;BME280;41397;49.972;18.944;2023-05-22T05:13:20;101975.65;;;25.50;37.20
55550;BME280;41397;49.972;18.944;2023-05-22T05:16:22;101969.35;;;25.62;37.16
55550;BME280;41397;49.972;18.944;2023-05-22T05:19:26;101980.52;;;25.92;36.70
55550;BME280;41397;49.972;18.944;2023-05-22T05:22:27;101978.09;;;25.89;36.34
55550;BME280;41397;49.972;18.944;2023-05-22T05:25:29;101975.38;;;25.81;36.68
55550;BME280;41397;49.972;18.944;2023-05-22T05:28:30;101990.57;;;25.72;36.69
55550;BME280;41397;49.972;18.944;2023-05-22T05:31:31;101975.27;;;25.89;36.67
55550;BME280;41397;49.972;18.944;2023-05-22T05:34:33;101985.23;;;25.91;36.18
55550;BME280;41397;49.972;18.944;2023-05-22T05:37:34;101983.77;;;25.96;35.80
55550;BME280;41397;49.972;18.944;2023-05-22T05:40:35;101991.39;;;26.02;35.99
55550;BME280;41397;49.972;18.944;2023-05-22T05:43:37;101979.16;;;25.88;36.33
55550;BME280;41397;49.972;18.944;2023-05-22T05:46:38;101989.99;;;25.76;36.34
55550;BME280;41397;49.972;18.944;2023-05-22T05:49:39;101981.60;;;25.61;36.21
55550;BME280;41397;49.972;18.944;2023-05-22T05:52:41;101984.10;;;25.71;36.54
55550;BME280;41397;49.972;18.944;2023-05-22T05:55:42;101977.64;;;25.71;36.08
55550;BME280;41397;49.972;18.944;2023-05-22T05:58:44;101982.50;;;25.62;36.43
55550;BME280;41397;49.972;18.944;2023-05-22T06:01:45;101978.34;;;25.58;36.02
55550;BME280;41397;49.972;18.944;2023-05-22T06:04:47;101980.56;;;25.47;36.17
55550;BME280;41397;49.972;18.944;2023-05-22T06:07:48;101974.02;;;25.25;36.18
55550;BME280;41397;49.972;18.944;2023-05-22T06:10:50;101962.04;;;25.02;36.57
55550;BME280;41397;49.972;18.944;2023-05-22T06:13:51;101978.63;;;25.03;36.26
55550;BME280;41397;49.972;18.944;2023-05-22T06:16:54;101979.37;;;24.83;36.67
55550;BME280;41397;49.972;18.944;2023-05-22T06:19:56;101969.94;;;24.98;36.94
55550;BME280;41397;49.972;18.944;2023-05-22T06:22:57;101961.53;;;24.98;37.50
55550;BME280;41397;49.972;18.944;2023-05-22T06:25:59;101973.51;;;24.92;37.12
55550;BME280;41397;49.972;18.944;2023-05-22T06:29:02;101972.04;;;24.81;37.43
55550;BME280;41397;49.972;18.944;2023-05-22T06:32:04;101973.68;;;24.76;37.90
55550;BME280;41397;49.972;18.944;2023-05-22T06:35:06;101964.63;;;24.89;38.12
55550;BME280;41397;49.972;18.944;2023-05-22T06:38:07;101961.84;;;25.03;38.23
55550;BME280;41397;49.972;18.944;2023-05-22T06:41:09;101971.48;;;24.86;37.20
55550;BME280;41397;49.972;18.944;2023-05-22T06:44:11;101965.37;;;24.83;37.35
55550;BME280;41397;49.972;18.944;2023-05-22T06:47:13;101949.66;;;24.81;37.63
55550;BME280;41397;49.972;18.944;2023-05-22T06:50:14;101956.80;;;24.99;37.42
55550;BME280;41397;49.972;18.944;2023-05-22T06:53:17;101965.30;;;25.06;36.99
55550;BME280;41397;49.972;18.944;2023-05-22T06:56:19;101967.25;;;25.05;37.31
55550;BME280;41397;49.972;18.944;2023-05-22T06:59:22;101952.30;;;25.13;37.15
55550;BME280;41397;49.972;18.944;2023-05-22T07:02:23;101955.17;;;25.34;37.45
55550;BME280;41397;49.972;18.944;2023-05-22T07:05:26;101951.70;;;25.47;37.04
55550;BME280;41397;49.972;18.944;2023-05-22T07:08:27;101960.15;;;25.68;36.15
55550;BME280;41397;49.972;18.944;2023-05-22T07:11:29;101957.82;;;25.72;36.00
55550;BME280;41397;49.972;18.944;2023-05-22T07:14:30;101955.76;;;25.81;36.61
55550;BME280;41397;49.972;18.944;2023-05-22T07:17:32;101960.22;;;25.75;35.45
55550;BME280;41397;49.972;18.944;2023-05-22T07:20:36;101951.70;;;25.47;35.38
55550;BME280;41397;49.972;18.944;2023-05-22T07:23:37;101953.85;;;25.30;35.54
55550;BME280;41397;49.972;18.944;2023-05-22T07:26:40;101946.70;;;25.28;36.34
55550;BME280;41397;49.972;18.944;2023-05-22T07:29:46;101947.96;;;25.25;36.24
55550;BME280;41397;49.972;18.944;2023-05-22T07:32:47;101946.63;;;25.21;35.69
55550;BME280;41397;49.972;18.944;2023-05-22T07:35:49;101946.52;;;25.29;36.32
55550;BME280;41397;49.972;18.944;2023-05-22T07:38:52;101942.94;;;25.35;36.35
55550;BME280;41397;49.972;18.944;2023-05-22T07:42:00;101947.17;;;25.31;36.48
55550;BME280;41397;49.972;18.944;2023-05-22T07:45:08;101943.54;;;25.16;35.63
55550;BME280;41397;49.972;18.944;2023-05-22T07:48:11;101953.16;;;25.13;35.51
55550;BME280;41397;49.972;18.944;2023-05-22T07:51:12;101948.91;;;25.02;35.76
55550;BME280;41397;49.972;18.944;2023-05-22T07:54:14;101943.83;;;25.21;36.02
55550;BME280;41397;49.972;18.944;2023-05-22T07:57:15;101943.62;;;25.22;35.52
55550;BME280;41397;49.972;18.944;2023-05-22T08:00:18;101939.16;;;25.43;35.69
55550;BME280;41397;49.972;18.944;2023-05-22T08:03:20;101931.58;;;25.58;35.55
55550;BME280;41397;49.972;18.944;2023-05-22T08:06:22;101943.13;;;25.34;34.54
55550;BME280;41397;49.972;18.944;2023-05-22T08:09:23;101930.94;;;25.41;34.72
55550;BME280;41397;49.972;18.944;2023-05-22T08:12:25;101928.73;;;25.37;35.07
55550;BME280;41397;49.972;18.944;2023-05-22T08:15:26;101929.73;;;25.29;34.53
55550;BME280;41397;49.972;18.944;2023-05-22T08:18:28;101922.09;;;25.23;35.28
55550;BME280;41397;49.972;18.944;2023-05-22T08:21:30;101928.54;;;25.09;34.52
55550;BME280;41397;49.972;18.944;2023-05-22T08:24:35;101926.03;;;25.14;33.46
55550;BME280;41397;49.972;18.944;2023-05-22T08:27:36;101946.50;;;24.99;34.33
55550;BME280;41397;49.972;18.944;2023-05-22T08:30:38;101930.95;;;24.97;33.83
55550;BME280;41397;49.972;18.944;2023-05-22T08:33:40;101929.78;;;24.76;33.64
55550;BME280;41397;49.972;18.944;2023-05-22T08:36:41;101951.77;;;24.79;32.61
55550;BME280;41397;49.972;18.944;2023-05-22T08:39:42;101933.05;;;24.65;33.21
55550;BME280;41397;49.972;18.944;2023-05-22T08:42:44;101925.04;;;24.62;32.50
55550;BME280;41397;49.972;18.944;2023-05-22T08:45:55;101922.93;;;24.79;32.92
55550;BME280;41397;49.972;18.944;2023-05-22T08:49:04;101930.25;;;24.65;31.92
55550;BME280;41397;49.972;18.944;2023-05-22T08:52:12;101943.20;;;24.43;31.99
55550;BME280;41397;49.972;18.944;2023-05-22T08:55:14;101923.88;;;24.56;31.48
55550;BME280;41397;49.972;18.944;2023-05-22T08:58:20;101925.91;;;24.63;31.35
55550;BME280;41397;49.972;18.944;2023-05-22T09:01:22;101918.20;;;24.79;31.76
55550;BME280;41397;49.972;18.944;2023-05-22T09:04:24;101932.49;;;24.70;31.48
55550;BME280;41397;49.972;18.944;2023-05-22T09:07:27;101914.92;;;24.76;31.65
55550;BME280;41397;49.972;18.944;2023-05-22T09:10:30;101904.40;;;24.93;32.13
55550;BME280;41397;49.972;18.944;2023-05-22T09:13:32;101898.81;;;24.93;32.04
55550;BME280;41397;49.972;18.944;2023-05-22T09:19:46;101898.91;;;24.85;31.83
55550;BME280;41397;49.972;18.944;2023-05-22T09:22:48;101909.80;;;24.79;31.28
55550;BME280;41397;49.972;18.944;2023-05-22T09:25:53;101881.95;;;24.86;31.29
55550;BME280;41397;49.972;18.944;2023-05-22T09:29:01;101910.67;;;24.65;30.40
55550;BME280;41397;49.972;18.944;2023-05-22T09:32:03;101899.87;;;24.77;31.65
55550;BME280;41397;49.972;18.944;2023-05-22T09:35:09;101894.19;;;24.70;31.70
55550;BME280;41397;49.972;18.944;2023-05-22T09:38:11;101902.19;;;24.73;32.43
55550;BME280;41397;49.972;18.944;2023-05-22T09:41:12;101904.90;;;24.81;32.68
55550;BME280;41397;49.972;18.944;2023-05-22T09:44:19;101902.69;;;24.92;32.82
55550;BME280;41397;49.972;18.944;2023-05-22T09:47:26;101903.34;;;25.09;32.83
55550;BME280;41397;49.972;18.944;2023-05-22T09:50:28;101894.27;;;25.07;32.85
55550;BME280;41397;49.972;18.944;2023-05-22T09:53:31;101896.30;;;24.98;32.50
55550;BME280;41397;49.972;18.944;2023-05-22T09:56:34;101894.19;;;25.00;32.65
55550;BME280;41397;49.972;18.944;2023-05-22T09:59:37;101899.03;;;24.91;33.52
55550;BME280;41397;49.972;18.944;2023-05-22T10:02:52;101885.21;;;24.90;32.51
55550;BME280;41397;49.972;18.944;2023-05-22T10:05:52;101885.29;;;25.11;33.70
55550;BME280;41397;49.972;18.944;2023-05-22T10:09:06;101914.83;;;24.99;33.08
55550;BME280;41397;49.972;18.944;2023-05-22T10:12:09;101897.75;;;24.79;32.89
55550;BME280;41397;49.972;18.944;2023-05-22T10:15:20;101880.10;;;24.78;32.89
55550;BME280;41397;49.972;18.944;2023-05-22T10:18:22;101894.07;;;24.93;33.38
55550;BME280;41397;49.972;18.944;2023-05-22T10:21:24;101900.55;;;25.09;33.45
55550;BME280;41397;49.972;18.944;2023-05-22T10:24:27;101898.63;;;24.94;33.49
55550;BME280;41397;49.972;18.944;2023-05-22T10:27:36;101903.47;;;24.86;33.71
55550;BME280;41397;49.972;18.944;2023-05-22T10:30:48;101888.97;;;24.82;33.96
55550;BME280;41397;49.972;18.944;2023-05-22T10:34:00;101883.77;;;24.79;34.04
55550;BME280;41397;49.972;18.944;2023-05-22T10:37:13;101887.23;;;24.96;33.89
55550;BME280;41397;49.972;18.944;2023-05-22T10:40:23;101904.52;;;24.99;33.77
55550;BME280;41397;49.972;18.944;2023-05-22T10:43:29;101884.23;;;24.83;33.51
55550;BME280;41397;49.972;18.944;2023-05-22T10:46:35;101896.59;;;24.58;34.20
55550;BME280;41397;49.972;18.944;2023-05-22T10:49:43;101876.72;;;24.53;35.36
55550;BME280;41397;49.972;18.944;2023-05-22T10:52:46;101890.08;;;24.43;35.02
55550;BME280;41397;49.972;18.944;2023-05-22T10:55:54;101884.13;;;24.46;34.66
55550;BME280;41397;49.972;18.944;2023-05-22T10:58:58;101876.13;;;24.58;34.91
55550;BME280;41397;49.972;18.944;2023-05-22T11:02:05;101863.59;;;24.69;34.71
55550;BME280;41397;49.972;18.944;2023-05-22T11:08:35;101857.05;;;24.62;35.27
55550;BME280;41397;49.972;18.944;2023-05-22T11:11:38;101863.79;;;24.82;34.99
55550;BME280;41397;49.972;18.944;2023-05-22T11:14:40;101856.18;;;24.76;34.21
55550;BME280;41397;49.972;18.944;2023-05-22T11:17:46;101854.03;;;24.93;35.15
55550;BME280;41397;49.972;18.944;2023-05-22T11:20:52;101860.49;;;24.93;34.95
55550;BME280;41397;49.972;18.944;2023-05-22T11:23:59;101867.85;;;24.94;34.44
55550;BME280;41397;49.972;18.944;2023-05-22T11:27:04;101867.34;;;24.91;34.40
55550;BME280;41397;49.972;18.944;2023-05-22T11:30:08;101862.94;;;24.96;34.49
55550;BME280;41397;49.972;18.944;2023-05-22T11:33:10;101857.30;;;25.11;35.05
55550;BME280;41397;49.972;18.944;2023-05-22T11:36:12;101853.64;;;25.11;35.18
55550;BME280;41397;49.972;18.944;2023-05-22T11:39:21;101846.89;;;25.05;34.63
55550;BME280;41397;49.972;18.944;2023-05-22T11:42:23;101845.92;;;25.13;34.84
55550;BME280;41397;49.972;18.944;2023-05-22T11:45:25;101863.30;;;25.23;34.55
55550;BME280;41397;49.972;18.944;2023-05-22T11:48:28;101841.63;;;25.32;34.41
55550;BME280;41397;49.972;18.944;2023-05-22T11:51:29;101842.40;;;25.40;35.50
55550;BME280;41397;49.972;18.944;2023-05-22T11:54:31;101845.45;;;25.24;35.18
55550;BME280;41397;49.972;18.944;2023-05-22T11:57:33;101834.70;;;25.28;35.66
55550;BME280;41397;49.972;18.944;2023-05-22T12:00:35;101836.31;;;25.37;34.76
55550;BME280;41397;49.972;18.944;2023-05-22T12:03:36;101833.95;;;25.55;35.53
55550;BME280;41397;49.972;18.944;2023-05-22T12:06:38;101846.27;;;25.61;34.39
55550;BME280;41397;49.972;18.944;2023-05-22T12:09:41;101851.48;;;25.64;34.36
55550;BME280;41397;49.972;18.944;2023-05-22T12:12:43;101835.20;;;25.74;33.54
55550;BME280;41397;49.972;18.944;2023-05-22T12:15:44;101834.20;;;25.60;32.90
55550;BME280;41397;49.972;18.944;2023-05-22T12:18:46;101829.69;;;25.59;34.48
55550;BME280;41397;49.972;18.944;2023-05-22T12:21:51;101843.56;;;25.67;34.33
55550;BME280;41397;49.972;18.944;2023-05-22T12:24:53;101829.79;;;25.73;34.06
55550;BME280;41397;49.972;18.944;2023-05-22T12:27:56;101823.81;;;25.76;33.19
55550;BME280;41397;49.972;18.944;2023-05-22T12:30:57;101845.96;;;25.71;33.26
55550;BME280;41397;49.972;18.944;2023-05-22T12:34:02;101840.35;;;25.71;33.72
55550;BME280;41397;49.972;18.944;2023-05-22T12:37:04;101819.66;;;25.72;32.83
55550;BME280;41397;49.972;18.944;2023-05-22T12:40:10;101826.75;;;25.67;32.49
55550;BME280;41397;49.972;18.944;2023-05-22T12:43:19;101836.46;;;25.50;32.88
55550;BME280;41397;49.972;18.944;2023-05-22T12:46:21;101818.80;;;25.50;33.60
55550;BME280;41397;49.972;18.944;2023-05-22T12:49:22;101813.01;;;25.51;33.44
55550;BME280;41397;49.972;18.944;2023-05-22T12:52:24;101809.41;;;25.57;34.22
55550;BME280;41397;49.972;18.944;2023-05-22T12:55:25;101813.92;;;25.58;33.92
55550;BME280;41397;49.972;18.944;2023-05-22T12:58:27;101816.27;;;25.55;33.99
55550;BME280;41397;49.972;18.944;2023-05-22T13:01:29;101820.00;;;25.40;33.79
55550;BME280;41397;49.972;18.944;2023-05-22T13:04:30;101807.91;;;25.40;33.41
55550;BME280;41397;49.972;18.944;2023-05-22T13:07:33;101811.05;;;25.30;34.33
55550;BME280;41397;49.972;18.944;2023-05-22T13:10:35;101826.88;;;25.23;33.95
55550;BME280;41397;49.972;18.944;2023-05-22T13:13:38;101813.39;;;25.27;33.98
55550;BME280;41397;49.972;18.944;2023-05-22T13:16:39;101808.95;;;25.17;33.41
55550;BME280;41397;49.972;18.944;2023-05-22T13:19:41;101811.65;;;25.11;34.68
55550;BME280;41397;49.972;18.944;2023-05-22T13:22:42;101800.07;;;25.14;34.77
55550;BME280;41397;49.972;18.944;2023-05-22T13:25:44;101810.90;;;25.17;34.10
55550;BME280;41397;49.972;18.944;2023-05-22T13:28:45;101797.97;;;25.16;32.49
55550;BME280;41397;49.972;18.944;2023-05-22T13:31:49;101784.37;;;25.34;32.40
55550;BME280;41397;49.972;18.944;2023-05-22T13:34:51;101792.51;;;25.51;33.28
55550;BME280;41397;49.972;18.944;2023-05-22T13:37:53;101793.00;;;25.54;33.73
55550;BME280;41397;49.972;18.944;2023-05-22T13:40:54;101782.84;;;25.53;33.56
55550;BME280;41397;49.972;18.944;2023-05-22T13:43:56;101790.39;;;25.53;32.50
55550;BME280;41397;49.972;18.944;2023-05-22T13:46:58;101789.58;;;25.59;33.29
55550;BME280;41397;49.972;18.944;2023-05-22T13:49:59;101781.98;;;25.53;32.06
55550;BME280;41397;49.972;18.944;2023-05-22T13:53:01;101781.80;;;25.54;32.91
55550;BME280;41397;49.972;18.944;2023-05-22T13:56:04;101778.37;;;25.59;33.05
55550;BME280;41397;49.972;18.944;2023-05-22T13:59:06;101782.06;;;25.59;31.44
55550;BME280;41397;49.972;18.944;2023-05-22T14:02:07;101780.17;;;25.66;32.05
55550;BME280;41397;49.972;18.944;2023-05-22T14:05:08;101780.80;;;25.62;30.73
55550;BME280;41397;49.972;18.944;2023-05-22T14:08:12;101778.73;;;25.49;31.75
55550;BME280;41397;49.972;18.944;2023-05-22T14:11:13;101776.19;;;25.54;31.69
55550;BME280;41397;49.972;18.944;2023-05-22T14:14:15;101771.36;;;25.48;30.83
55550;BME280;41397;49.972;18.944;2023-05-22T14:17:22;101779.00;;;25.54;31.92
55550;BME280;41397;49.972;18.944;2023-05-22T14:20:24;101753.57;;;25.56;32.51
55550;BME280;41397;49.972;18.944;2023-05-22T14:23:25;101761.59;;;25.37;31.60
55550;BME280;41397;49.972;18.944;2023-05-22T14:26:27;101763.91;;;25.34;31.59
55550;BME280;41397;49.972;18.944;2023-05-22T14:29:32;101747.64;;;25.22;30.20
55550;BME280;41397;49.972;18.944;2023-05-22T14:32:34;101746.78;;;25.22;30.90
55550;BME280;41397;49.972;18.944;2023-05-22T14:35:36;101742.26;;;25.21;32.15
55550;BME280;41397;49.972;18.944;2023-05-22T14:38:37;101739.34;;;25.14;31.05
55550;BME280;41397;49.972;18.944;2023-05-22T14:41:39;101740.91;;;25.17;31.75
55550;BME280;41397;49.972;18.944;2023-05-22T14:44:40;101740.96;;;25.23;32.62
55550;BME280;41397;49.972;18.944;2023-05-22T14:47:42;101752.02;;;25.10;31.24
55550;BME280;41397;49.972;18.944;2023-05-22T14:50:45;101731.84;;;25.15;31.72
55550;BME280;41397;49.972;18.944;2023-05-22T14:53:47;101745.34;;;25.11;31.90
55550;BME280;41397;49.972;18.944;2023-05-22T14:56:48;101734.73;;;25.07;31.92
55550;BME280;41397;49.972;18.944;2023-05-22T14:59:50;101729.99;;;25.07;32.37
55550;BME280;41397;49.972;18.944;2023-05-22T15:02:52;101722.48;;;25.08;32.30
55550;BME280;41397;49.972;18.944;2023-05-22T15:05:53;101750.78;;;24.98;31.91
55550;BME280;41397;49.972;18.944;2023-05-22T15:08:55;101734.57;;;24.93;31.74
55550;BME280;41397;49.972;18.944;2023-05-22T15:11:56;101738.86;;;24.74;31.80
55550;BME280;41397;49.972;18.944;2023-05-22T15:15:01;101733.70;;;24.56;32.07
55550;BME280;41397;49.972;18.944;2023-05-22T15:18:03;101734.77;;;24.55;31.91
55550;BME280;41397;49.972;18.944;2023-05-22T15:21:06;101737.57;;;24.55;32.45
55550;BME280;41397;49.972;18.944;2023-05-22T15:24:08;101726.85;;;24.59;32.63
55550;BME280;41397;49.972;18.944;2023-05-22T15:30:32;101734.49;;;24.50;32.25
55550;BME280;41397;49.972;18.944;2023-05-22T15:33:38;101725.03;;;24.51;32.96
55550;BME280;41397;49.972;18.944;2023-05-22T15:36:40;101712.70;;;24.46;33.40
55550;BME280;41397;49.972;18.944;2023-05-22T15:39:45;101728.47;;;24.38;33.20
55550;BME280;41397;49.972;18.944;2023-05-22T15:42:49;101708.08;;;24.53;33.10
55550;BME280;41397;49.972;18.944;2023-05-22T15:45:56;101714.23;;;24.48;32.60
55550;BME280;41397;49.972;18.944;2023-05-22T15:48:57;101704.55;;;24.36;32.27
55550;BME280;41397;49.972;18.944;2023-05-22T15:51:59;101707.85;;;24.25;33.68
55550;BME280;41397;49.972;18.944;2023-05-22T15:55:01;101712.49;;;24.18;32.71
55550;BME280;41397;49.972;18.944;2023-05-22T15:58:03;101695.63;;;24.26;32.65
55550;BME280;41397;49.972;18.944;2023-05-22T16:01:08;101713.44;;;24.25;31.99
55550;BME280;41397;49.972;18.944;2023-05-22T16:04:12;101699.96;;;24.28;32.64
55550;BME280;41397;49.972;18.944;2023-05-22T16:07:19;101699.28;;;24.26;32.56
55550;BME280;41397;49.972;18.944;2023-05-22T16:10:20;101693.38;;;24.36;33.08
55550;BME280;41397;49.972;18.944;2023-05-22T16:13:22;101692.62;;;24.42;33.28
55550;BME280;41397;49.972;18.944;2023-05-22T16:16:23;101693.38;;;24.36;32.90